Time;durP1;ratioP1;P1;durP2;ratioP2;P2;SDS_P1;SDS_P2;PMS_P1;PMS_P2;Temp;Humidity;BMP_temperature;BMP_pressure;BME280_temperature;BME280_humidity;BME280_pressure;Samples;Min_cycle;Max_cycle;Signal;HPM_P1;HPM_P2
2022/04/30 00:00:20;;;;;;;17.07;13.05;;;;;;;8.83;71.76;101104.11;2863275;80;21027;-85
2022/04/30 00:04:22;;;;;;;17.90;13.38;;;;;;;8.83;72.12;101098.80;2860881;81;21578;-85
2022/04/30 00:08:24;;;;;;;15.80;11.55;;;;;;;8.78;72.32;101094.27;2825060;81;21012;-84
2022/04/30 00:12:26;;;;;;;15.80;12.25;;;;;;;8.65;73.08;101084.89;2829107;82;21888;-84
2022/04/30 00:16:27;;;;;;;21.37;15.72;;;;;;;8.36;73.77;101088.32;2873791;81;21359;-84
2022/04/30 00:20:28;;;;;;;19.23;12.35;;;;;;;8.17;75.00;101086.38;2859849;80;21046;-83
2022/04/30 00:24:30;;;;;;;21.30;12.23;;;;;;;7.96;76.35;101091.99;2859579;82;21634;-84
2022/04/30 00:28:31;;;;;;;17.55;11.68;;;;;;;7.81;76.28;101093.25;2797281;82;21087;-85
2022/04/30 00:32:32;;;;;;;17.40;10.65;;;;;;;7.80;76.07;101095.52;2759668;83;21011;-85
2022/04/30 00:36:34;;;;;;;14.80;9.90;;;;;;;7.82;76.76;101098.93;2800789;83;21039;-85
2022/04/30 00:40:35;;;;;;;14.03;10.38;;;;;;;7.77;76.55;101097.02;2757501;84;21074;-84
2022/04/30 00:44:36;;;;;;;16.15;11.55;;;;;;;7.76;77.05;101095.32;2774578;84;21607;-84
2022/04/30 00:48:37;;;;;;;16.93;11.45;;;;;;;7.69;77.26;101098.78;2852123;81;21096;-85
2022/04/30 00:52:38;;;;;;;13.58;10.45;;;;;;;7.72;76.87;101095.12;2797866;83;21122;-85
2022/04/30 00:56:53;;;;;;;21.87;14.20;;;;;;;7.77;76.96;101090.41;2822780;83;21607;-85
2022/04/30 01:00:55;;;;;;;27.70;16.17;;;;;;;7.92;77.09;101090.47;2807531;83;21060;-84
2022/04/30 01:04:58;;;;;;;17.30;12.28;;;;;;;8.08;76.62;101090.42;2801094;83;21051;-82
2022/04/30 01:09:00;;;;;;;13.75;10.10;;;;;;;8.03;76.52;101086.70;2815621;83;21054;-84
2022/04/30 01:13:03;;;;;;;20.40;10.80;;;;;;;7.99;76.58;101091.81;2798819;83;21019;-82
2022/04/30 01:17:08;;;;;;;20.75;12.63;;;;;;;7.86;77.00;101084.59;2811616;83;21079;-84
2022/04/30 01:21:12;;;;;;;22.52;14.83;;;;;;;7.82;76.86;101080.39;2809195;82;21034;-84
2022/04/30 01:25:14;;;;;;;19.17;11.65;;;;;;;7.96;76.92;101089.34;2799116;83;21079;-84
2022/04/30 01:29:18;;;;;;;20.43;12.18;;;;;;;8.05;76.40;101086.14;2786104;84;21023;-84
2022/04/30 01:37:38;;;;;;;18.42;13.22;;;;;;;8.20;75.47;101084.87;2780769;85;21624;-83
2022/04/30 01:41:39;;;;;;;35.98;22.07;;;;;;;8.29;75.20;101082.53;2773347;84;21587;-83
2022/04/30 01:45:43;;;;;;;25.12;17.12;;;;;;;8.31;74.92;101078.92;2784980;83;21084;-84
2022/04/30 01:49:44;;;;;;;21.82;15.32;;;;;;;8.20;75.10;101070.30;2794572;84;21023;-84
2022/04/30 01:53:46;;;;;;;15.13;10.32;;;;;;;8.24;75.11;101062.53;2792865;84;21096;-81
2022/04/30 01:57:47;;;;;;;17.55;10.88;;;;;;;8.29;74.67;101064.45;2773743;84;21602;-84
2022/04/30 02:01:48;;;;;;;16.75;10.70;;;;;;;8.33;74.42;101073.92;2763371;83;21084;-83
2022/04/30 02:05:49;;;;;;;14.23;12.15;;;;;;;8.37;74.51;101059.53;2724972;85;21066;-84
2022/04/30 02:09:51;;;;;;;21.35;11.70;;;;;;;8.40;74.36;101068.63;2720698;84;21039;-84
2022/04/30 02:13:56;;;;;;;18.25;12.93;;;;;;;8.39;74.18;101066.09;2781017;84;21021;-84
2022/04/30 02:17:57;;;;;;;22.60;14.28;;;;;;;8.36;74.35;101056.51;2787504;83;21877;-85
2022/04/30 02:21:59;;;;;;;40.78;23.00;;;;;;;8.36;74.67;101049.88;2782683;83;21559;-84
2022/04/30 02:26:04;;;;;;;19.02;12.78;;;;;;;8.28;74.79;101048.17;2789632;84;21058;-84
2022/04/30 02:30:07;;;;;;;24.70;15.10;;;;;;;8.02;75.88;101039.95;2777605;83;21008;-84
2022/04/30 02:34:08;;;;;;;23.67;14.25;;;;;;;7.81;77.39;101036.30;2797316;84;21548;-85
2022/04/30 02:38:10;;;;;;;31.30;20.12;;;;;;;7.62;78.39;101038.31;2787640;83;21929;-84
2022/04/30 02:42:14;;;;;;;39.67;27.37;;;;;;;7.60;78.24;101040.20;2797355;84;21513;-83
2022/04/30 02:46:15;;;;;;;24.90;17.65;;;;;;;7.68;77.90;101039.30;2779450;84;21107;-84
2022/04/30 02:50:16;;;;;;;25.82;16.20;;;;;;;7.76;77.41;101034.86;2773662;83;21050;-84
2022/04/30 02:54:17;;;;;;;24.72;16.00;;;;;;;7.85;77.22;101016.64;2761397;83;21089;-84
2022/04/30 03:02:38;;;;;;;24.82;15.50;;;;;;;7.94;77.07;101013.91;2776406;83;21622;-86
2022/04/30 03:06:39;;;;;;;31.35;18.62;;;;;;;7.93;77.23;101008.73;2768025;84;21012;-84
2022/04/30 03:10:41;;;;;;;26.52;16.23;;;;;;;7.94;76.81;101007.30;2747415;83;20995;-83
2022/04/30 03:14:42;;;;;;;28.10;16.67;;;;;;;7.96;76.41;101013.84;2752641;84;22332;-85
2022/04/30 03:23:04;;;;;;;24.45;17.00;;;;;;;7.86;76.76;101009.10;2842320;82;21098;-85
2022/04/30 03:27:06;;;;;;;24.00;17.15;;;;;;;7.83;76.74;101008.41;2854254;81;20983;-84
2022/04/30 03:31:09;;;;;;;22.90;16.80;;;;;;;7.78;76.83;101006.03;2854703;80;21570;-85
2022/04/30 03:35:11;;;;;;;20.72;15.70;;;;;;;7.88;76.71;101009.48;2862886;80;21034;-84
2022/04/30 03:39:12;;;;;;;18.17;14.47;;;;;;;7.87;76.62;101012.59;2851627;81;21679;-84
2022/04/30 03:43:16;;;;;;;19.23;13.78;;;;;;;7.79;76.59;101009.06;2772946;81;21612;-84
2022/04/30 03:47:17;;;;;;;17.85;11.60;;;;;;;7.81;76.65;101012.47;2860488;81;21079;-84
2022/04/30 03:51:21;;;;;;;21.70;15.25;;;;;;;7.88;76.82;101010.80;2869128;81;20994;-85
2022/04/30 03:55:22;;;;;;;26.73;19.32;;;;;;;7.97;76.74;101006.27;2846733;81;21074;-84
2022/04/30 03:59:23;;;;;;;23.83;14.20;;;;;;;7.99;76.41;101003.92;2873268;80;21710;-85
2022/04/30 04:03:25;;;;;;;32.17;14.78;;;;;;;7.76;77.40;101005.27;2858468;80;21082;-84
2022/04/30 04:07:27;;;;;;;16.67;13.85;;;;;;;7.47;78.85;101006.96;2851144;82;21012;-85
2022/04/30 04:11:28;;;;;;;22.95;14.83;;;;;;;7.26;80.21;101004.11;2846904;82;21051;-85
2022/04/30 04:19:49;;;;;;;21.15;12.93;;;;;;;7.13;81.04;101000.47;2854403;80;21075;-84
2022/04/30 04:28:10;;;;;;;33.75;17.57;;;;;;;7.20;81.23;101003.63;2843384;82;21048;-85
2022/04/30 04:32:11;;;;;;;25.32;16.42;;;;;;;7.25;81.51;101002.89;2836617;82;21586;-85
2022/04/30 04:36:12;;;;;;;20.92;15.68;;;;;;;7.28;81.50;101006.69;2780924;82;21081;-85
2022/04/30 04:40:15;;;;;;;21.17;13.30;;;;;;;7.38;81.32;101005.23;2865101;81;21611;-84
2022/04/30 04:44:16;;;;;;;17.35;12.80;;;;;;;7.54;81.77;101007.84;2850534;80;21089;-83
2022/04/30 04:48:17;;;;;;;24.92;16.45;;;;;;;7.64;81.28;101005.52;2872592;80;21046;-84
2022/04/30 04:52:18;;;;;;;17.90;15.15;;;;;;;7.75;81.56;101005.34;2872386;80;21014;-84
2022/04/30 04:56:20;;;;;;;25.68;16.87;;;;;;;7.85;80.61;101007.85;2868132;81;21059;-84
2022/04/30 05:00:21;;;;;;;25.43;17.37;;;;;;;7.84;80.76;101005.66;2840644;81;21050;-85
2022/04/30 05:04:24;;;;;;;18.95;16.42;;;;;;;7.91;80.45;101010.62;2790710;81;21019;-80
2022/04/30 05:08:25;;;;;;;25.32;17.75;;;;;;;7.98;80.54;101013.27;2861255;80;21120;-85
2022/04/30 05:12:26;;;;;;;35.30;19.80;;;;;;;8.05;80.91;101015.92;2776152;82;21075;-84
2022/04/30 05:16:27;;;;;;;29.92;19.48;;;;;;;8.09;80.82;101012.17;2869759;82;21039;-85
2022/04/30 05:20:28;;;;;;;24.98;16.27;;;;;;;8.19;80.79;101014.26;2853373;81;21042;-84
2022/04/30 05:24:30;;;;;;;22.62;17.15;;;;;;;8.35;80.85;101015.50;2825887;82;21657;-85
2022/04/30 05:28:31;;;;;;;28.40;18.35;;;;;;;8.50;80.69;101013.77;2875860;81;21566;-82
2022/04/30 05:32:32;;;;;;;27.20;18.30;;;;;;;8.63;80.42;101014.69;2841916;81;21653;-85
2022/04/30 05:36:33;;;;;;;31.93;20.05;;;;;;;8.84;80.17;101020.46;2785274;82;21609;-85
2022/04/30 05:40:35;;;;;;;31.40;21.95;;;;;;;9.10;79.65;101015.78;2837016;81;21577;-84
2022/04/30 05:44:36;;;;;;;31.00;19.40;;;;;;;9.24;80.03;101021.52;2814324;82;21051;-82
2022/04/30 05:48:37;;;;;;;24.55;18.12;;;;;;;9.29;80.61;101016.76;2870752;80;21057;-84
2022/04/30 05:52:38;;;;;;;22.67;18.37;;;;;;;9.41;81.09;101017.30;2846263;80;21054;-85
2022/04/30 05:56:39;;;;;;;28.60;20.23;;;;;;;9.62;81.05;101025.27;2870011;80;21354;-84
2022/04/30 06:00:40;;;;;;;23.40;18.70;;;;;;;9.83;81.02;101023.87;2849346;81;21106;-84
2022/04/30 06:04:42;;;;;;;26.42;18.52;;;;;;;10.06;81.00;101024.58;2812080;81;21642;-86
2022/04/30 06:08:43;;;;;;;24.30;18.45;;;;;;;10.28;80.78;101017.32;2860898;82;21011;-87
2022/04/30 06:12:44;;;;;;;32.40;23.52;;;;;;;10.44;80.19;101019.79;2783135;83;21018;-85
2022/04/30 06:16:46;;;;;;;50.23;29.10;;;;;;;10.62;79.97;101017.67;2805109;81;21094;-84
2022/04/30 06:20:47;;;;;;;43.25;30.55;;;;;;;10.93;78.54;101018.12;2882824;80;21027;-84
2022/04/30 06:24:49;;;;;;;27.55;21.23;;;;;;;11.23;77.82;101019.55;2874215;81;20959;-87
2022/04/30 06:28:50;;;;;;;29.90;20.00;;;;;;;11.46;76.04;101017.00;2861844;81;21042;-83
2022/04/30 06:32:51;;;;;;;24.32;17.70;;;;;;;11.69;74.16;101015.29;2832144;81;21444;-90
2022/04/30 06:36:52;;;;;;;31.15;22.67;;;;;;;11.93;73.50;101014.86;2863693;80;21097;-86
2022/04/30 06:40:53;;;;;;;26.35;19.35;;;;;;;12.17;71.83;101016.64;2862883;81;21007;-87
2022/04/30 06:44:54;;;;;;;21.75;16.52;;;;;;;12.44;72.33;101013.65;2873439;81;21022;-85
2022/04/30 06:48:55;;;;;;;30.23;19.20;;;;;;;12.74;71.85;101014.88;2775594;82;21018;-86
2022/04/30 06:57:21;;;;;;;26.27;17.92;;;;;;;13.50;69.23;101028.01;2844179;80;21541;-84
2022/04/30 07:01:42;;;;;;;19.05;15.25;;;;;;;13.79;67.46;101028.25;2864031;80;21490;-86
2022/04/30 07:05:34;;;;;;;22.82;17.92;;;;;;;14.09;67.56;101030.63;2849951;82;21043;-86
2022/04/30 07:09:37;;;;;;;27.98;21.17;;;;;;;14.34;66.28;101033.87;2812773;82;20998;-88
2022/04/30 07:13:38;;;;;;;19.00;14.98;;;;;;;14.54;65.11;101033.98;2813585;82;21038;-87
2022/04/30 07:17:39;;;;;;;18.98;13.80;;;;;;;14.62;63.88;101034.17;2812717;81;21022;-87
2022/04/30 07:21:41;;;;;;;20.17;14.63;;;;;;;14.72;64.31;101032.91;2851987;80;21059;-85
2022/04/30 07:25:42;;;;;;;23.27;14.45;;;;;;;14.97;64.88;101035.62;2851584;80;21069;-86
2022/04/30 07:29:43;;;;;;;25.48;16.07;;;;;;;15.11;63.66;101038.88;2826247;82;21427;-87
2022/04/30 07:47:58;;;;;;;25.45;14.15;;;;;;;15.83;62.63;101036.84;3006524;77;22162;-83
2022/04/30 07:52:00;;;;;;;22.40;11.57;;;;;;;15.96;62.45;101032.55;2976767;78;21062;-82
2022/04/30 07:56:01;;;;;;;22.80;14.23;;;;;;;16.13;59.88;101035.02;3022021;78;21541;-82
2022/04/30 08:00:03;;;;;;;21.02;12.53;;;;;;;16.26;59.90;101030.67;3021732;77;21494;-83
2022/04/30 08:04:05;;;;;;;17.90;13.75;;;;;;;16.21;60.18;101034.30;3014598;78;21026;-83
2022/04/30 08:08:07;;;;;;;15.60;12.55;;;;;;;16.39;60.03;101032.17;3012319;78;21022;-84
2022/04/30 08:12:09;;;;;;;20.12;13.70;;;;;;;16.60;59.38;101037.83;3006806;78;20998;-84
2022/04/30 08:16:11;;;;;;;15.68;12.98;;;;;;;16.70;59.34;101036.83;3011152;78;21045;-84
2022/04/30 08:20:12;;;;;;;76.15;50.63;;;;;;;16.87;58.51;101034.84;2937203;78;21022;-84
2022/04/30 08:24:13;;;;;;;23.10;15.88;;;;;;;17.07;57.44;101034.26;3011733;78;21026;-84
2022/04/30 09:03:07;;;;;;;19.65;13.32;;;;;;;18.34;54.72;101029.70;2927760;79;23497;-92
2022/04/30 09:07:15;;;;;;;20.20;11.93;;;;;;;18.36;55.10;101024.14;2911362;80;21093;-92
2022/04/30 09:11:18;;;;;;;17.57;11.80;;;;;;;18.47;54.43;101028.41;2916445;80;21869;-92
2022/04/30 09:15:20;;;;;;;19.75;13.53;;;;;;;18.55;54.56;101028.47;2904833;80;21030;-89
2022/04/30 09:19:21;;;;;;;13.98;10.20;;;;;;;18.53;55.09;101019.19;2904687;80;21046;-90
2022/04/30 09:23:31;;;;;;;14.78;10.55;;;;;;;18.65;54.33;101019.75;2899933;80;21077;-90
2022/04/30 09:27:33;;;;;;;13.18;11.00;;;;;;;18.71;53.05;101015.58;2884959;81;20999;-89
2022/04/30 09:31:34;;;;;;;15.15;9.40;;;;;;;18.77;50.50;101019.48;2886623;80;21026;-90
2022/04/30 09:39:57;;;;;;;14.73;9.88;;;;;;;18.85;52.20;101010.06;2900924;81;21065;-89
2022/04/30 09:44:07;;;;;;;28.98;16.48;;;;;;;18.97;50.53;101007.95;2902709;80;21029;-89
2022/04/30 09:56:38;;;;;;;14.15;8.20;;;;;;;18.97;48.89;101009.30;2897165;80;21053;-90
2022/04/30 10:00:40;;;;;;;17.77;13.58;;;;;;;18.95;48.05;101009.45;2879374;81;21030;-90
2022/04/30 10:04:44;;;;;;;23.02;12.43;;;;;;;18.78;47.81;101011.73;2906970;81;21037;-90
2022/04/30 10:08:46;;;;;;;18.35;9.70;;;;;;;18.77;46.80;100997.92;2904255;81;22412;-90
2022/04/30 10:13:06;;;;;;;17.65;10.78;;;;;;;18.85;46.19;100997.94;2904543;81;21072;-91
2022/04/30 10:17:13;;;;;;;14.85;10.08;;;;;;;18.84;48.01;100999.80;2904954;81;21045;-91
2022/04/30 10:21:18;;;;;;;13.48;8.73;;;;;;;18.92;47.43;100998.99;2893796;81;21072;-90
2022/04/30 10:25:49;;;;;;;11.83;6.83;;;;;;;18.75;47.64;100994.55;2888892;81;21010;-89
2022/04/30 10:29:59;;;;;;;7.70;6.28;;;;;;;18.75;46.67;100992.68;2897412;81;21061;-91
2022/04/30 10:34:00;;;;;;;16.20;7.15;;;;;;;18.74;48.43;100994.20;2894983;81;21034;-89
2022/04/30 10:38:18;;;;;;;12.13;6.87;;;;;;;18.68;46.98;100988.47;2880133;81;21065;-89
2022/04/30 10:42:42;;;;;;;10.08;5.58;;;;;;;18.71;48.39;100983.23;2878715;81;21357;-90
2022/04/30 10:46:43;;;;;;;9.78;6.33;;;;;;;18.72;47.10;100981.41;2879576;81;21096;-91
2022/04/30 11:06:54;;;;;;;15.43;9.33;;;;;;;19.13;45.80;100962.16;2887756;79;22213;-86
2022/04/30 11:10:56;;;;;;;11.70;7.47;;;;;;;18.91;46.00;100960.06;2927430;80;21360;-83
2022/04/30 11:14:58;;;;;;;11.90;6.08;;;;;;;18.95;45.97;100955.53;2894329;81;21012;-84
2022/04/30 11:19:10;;;;;;;13.98;7.40;;;;;;;19.21;47.41;100942.98;2839205;81;21004;-84
2022/04/30 11:23:23;;;;;;;10.88;5.45;;;;;;;19.31;45.20;100942.81;2930106;79;21032;-82
2022/04/30 11:27:24;;;;;;;9.58;7.00;;;;;;;19.44;42.14;100935.56;2930882;80;21018;-82
2022/04/30 11:31:25;;;;;;;14.83;7.95;;;;;;;19.39;44.77;100930.67;2932961;79;21039;-83
2022/04/30 11:35:27;;;;;;;14.05;8.15;;;;;;;19.54;44.70;100934.88;2876143;80;21016;-82
2022/04/30 11:39:29;;;;;;;12.13;7.83;;;;;;;19.61;45.35;100935.05;2903606;80;21106;-82
2022/04/30 11:43:30;;;;;;;12.98;7.58;;;;;;;19.47;45.61;100932.03;2926337;79;21078;-83
2022/04/30 11:47:32;;;;;;;13.98;7.67;;;;;;;19.51;46.65;100927.98;2911766;80;21004;-82
2022/04/30 11:51:33;;;;;;;13.10;7.87;;;;;;;19.37;43.97;100925.95;2897284;80;21008;-82
2022/04/30 11:55:40;;;;;;;13.70;8.05;;;;;;;19.30;44.71;100927.64;2906256;79;21019;-82
2022/04/30 11:59:41;;;;;;;13.68;8.10;;;;;;;19.12;44.90;100921.89;2902937;80;21015;-82
2022/04/30 12:03:42;;;;;;;12.82;6.58;;;;;;;19.09;44.46;100916.84;2871853;80;21012;-82
2022/04/30 12:07:46;;;;;;;12.40;9.18;;;;;;;19.11;44.60;100914.30;2936032;79;21512;-82
2022/04/30 12:11:50;;;;;;;125.67;76.75;;;;;;;19.24;45.53;100906.23;2922509;79;21038;-82
2022/04/30 12:16:05;;;;;;;19.12;8.03;;;;;;;19.30;44.90;100897.98;2928691;79;21145;-82
2022/04/30 12:24:46;;;;;;;11.00;6.72;;;;;;;19.70;44.67;100896.26;2926207;79;21048;-82
2022/04/30 12:28:50;;;;;;;10.50;6.37;;;;;;;19.83;43.40;100895.20;2905252;79;21533;-82
2022/04/30 12:33:00;;;;;;;8.90;6.12;;;;;;;19.99;44.11;100889.46;2931063;79;21644;-83
2022/04/30 12:37:02;;;;;;;10.13;6.90;;;;;;;20.00;43.93;100884.92;2927337;79;21008;-82
2022/04/30 12:41:06;;;;;;;90.85;35.00;;;;;;;20.06;42.49;100889.13;2901752;81;21008;-82
2022/04/30 12:45:08;;;;;;;25.57;14.93;;;;;;;20.07;42.80;100873.25;2890294;80;21070;-83
2022/04/30 12:49:11;;;;;;;19.45;10.50;;;;;;;20.10;41.66;100878.80;2914931;81;21063;-83
2022/04/30 12:53:12;;;;;;;22.37;9.53;;;;;;;20.19;43.22;100866.10;2893590;80;21035;-83
2022/04/30 12:57:13;;;;;;;8.60;6.25;;;;;;;20.23;42.42;100867.43;2908698;80;21055;-83
2022/04/30 13:01:14;;;;;;;9.90;5.42;;;;;;;20.11;43.30;100858.88;2917105;80;21059;-83
2022/04/30 13:05:16;;;;;;;7.00;4.70;;;;;;;20.05;42.30;100855.03;2922802;80;21402;-83
2022/04/30 13:13:39;;;;;;;9.43;6.08;;;;;;;20.03;42.02;100851.64;2869556;80;21076;-82
2022/04/30 13:17:40;;;;;;;5.85;3.67;;;;;;;20.01;41.19;100848.80;2898328;80;21095;-83
2022/04/30 13:21:41;;;;;;;13.20;5.03;;;;;;;20.07;40.82;100850.30;2929775;80;21075;-83
2022/04/30 13:25:42;;;;;;;17.15;8.63;;;;;;;19.97;41.32;100844.25;2930867;79;21043;-82
2022/04/30 13:29:43;;;;;;;9.00;5.28;;;;;;;19.91;42.71;100839.52;2927146;80;21067;-82
2022/04/30 13:33:44;;;;;;;7.20;4.03;;;;;;;19.77;43.09;100836.52;2901160;80;21067;-86
2022/04/30 13:37:46;;;;;;;9.75;3.85;;;;;;;19.91;43.11;100832.77;2921434;79;21039;-81
2022/04/30 13:41:47;;;;;;;11.97;4.05;;;;;;;20.09;42.30;100822.61;2908506;81;20999;-87
2022/04/30 13:45:48;;;;;;;5.62;3.90;;;;;;;20.31;40.78;100821.98;2902098;80;21028;-84
2022/04/30 13:49:49;;;;;;;11.75;5.05;;;;;;;20.32;40.32;100821.81;2924545;80;21047;-87
2022/04/30 13:53:50;;;;;;;5.47;4.47;;;;;;;20.35;40.80;100818.76;2843300;80;21051;-87
2022/04/30 13:57:51;;;;;;;8.53;4.67;;;;;;;20.38;42.28;100821.09;2917415;80;21004;-85
2022/04/30 14:01:53;;;;;;;9.10;5.42;;;;;;;20.24;42.61;100809.20;2903250;81;21173;-87
2022/04/30 14:05:55;;;;;;;24.67;6.55;;;;;;;20.04;43.02;100807.95;2929085;80;21540;-87
2022/04/30 14:09:57;;;;;;;9.05;5.70;;;;;;;19.83;42.94;100800.72;2911214;81;21015;-88
2022/04/30 14:18:19;;;;;;;20.80;11.60;;;;;;;19.58;43.02;100795.08;2924180;80;21518;-86
2022/04/30 14:22:21;;;;;;;12.88;6.58;;;;;;;19.35;44.12;100795.81;2912381;80;21003;-87
2022/04/30 14:26:22;;;;;;;10.25;6.00;;;;;;;19.21;45.92;100798.18;2871038;81;21058;-83
2022/04/30 14:30:23;;;;;;;20.65;13.35;;;;;;;19.18;48.00;100797.17;2811684;81;20992;-83
2022/04/30 14:34:25;;;;;;;30.27;19.48;;;;;;;19.21;46.43;100792.78;2913806;80;21090;-83
2022/04/30 14:38:26;;;;;;;212.15;127.60;;;;;;;19.30;46.19;100794.97;2868936;81;21028;-83
2022/04/30 14:42:27;;;;;;;47.27;27.75;;;;;;;19.37;45.56;100794.64;2877722;79;21047;-83
2022/04/30 14:46:28;;;;;;;15.23;8.85;;;;;;;19.42;46.48;100795.45;2915140;80;21011;-83
2022/04/30 14:50:29;;;;;;;9.40;7.20;;;;;;;19.41;46.97;100789.23;2881649;80;20972;-82
2022/04/30 14:54:30;;;;;;;12.65;6.67;;;;;;;19.46;45.80;100784.67;2876031;79;21052;-83
2022/04/30 14:58:31;;;;;;;9.88;6.37;;;;;;;19.39;46.26;100779.13;2840725;80;21701;-82
2022/04/30 15:02:33;;;;;;;23.42;12.03;;;;;;;19.32;46.99;100778.63;2897691;80;21047;-82
2022/04/30 15:06:34;;;;;;;201.30;96.42;;;;;;;19.39;47.37;100771.52;2908771;80;20996;-82
2022/04/30 15:10:36;;;;;;;36.48;19.77;;;;;;;19.47;46.67;100759.37;2902008;80;21024;-82
2022/04/30 15:14:37;;;;;;;46.50;27.10;;;;;;;19.57;46.90;100758.33;2906403;80;21024;-82
2022/04/30 15:18:38;;;;;;;37.13;16.73;;;;;;;19.58;46.20;100760.86;2886608;81;21059;-82
2022/04/30 15:22:40;;;;;;;13.00;8.43;;;;;;;19.55;47.10;100763.39;2902694;81;21039;-82
2022/04/30 15:26:41;;;;;;;9.98;6.78;;;;;;;19.48;45.68;100761.06;2901664;81;21053;-82
2022/04/30 15:30:44;;;;;;;50.17;17.10;;;;;;;19.55;45.18;100759.34;2913199;80;21056;-84
2022/04/30 15:34:45;;;;;;;13.43;8.83;;;;;;;19.57;45.82;100761.02;2929124;79;21007;-84
2022/04/30 15:38:46;;;;;;;14.35;8.40;;;;;;;19.60;44.96;100749.88;2929204;80;21026;-86
2022/04/30 15:42:49;;;;;;;11.05;7.08;;;;;;;19.65;44.91;100741.59;2922711;79;20987;-84
2022/04/30 15:51:22;;;;;;;62.83;34.80;;;;;;;19.41;47.04;100746.06;2883178;82;21047;-90
2022/04/30 15:55:24;;;;;;;19.87;9.73;;;;;;;19.32;47.80;100740.34;2918426;79;21015;-87
2022/04/30 15:59:26;;;;;;;16.57;6.60;;;;;;;19.35;48.68;100736.47;2880043;81;21023;-89
2022/04/30 16:03:28;;;;;;;117.37;68.70;;;;;;;19.30;48.03;100740.20;2891806;82;21026;-87
2022/04/30 16:07:29;;;;;;;35.63;23.10;;;;;;;19.25;47.25;100741.53;2837076;81;21518;-88
2022/04/30 16:11:34;;;;;;;41.58;25.17;;;;;;;19.23;47.29;100734.12;2918841;80;21046;-89
2022/04/30 16:15:33;;;;;;;90.95;60.58;;;;;;;19.15;46.36;100735.50;2904206;80;21026;-85
2022/04/30 16:19:34;;;;;;;32.17;20.72;;;;;;;19.11;46.85;100732.83;2893691;81;21003;-86
2022/04/30 16:23:36;;;;;;;11.90;9.18;;;;;;;19.11;45.77;100730.12;2922061;80;21078;-81
2022/04/30 16:27:37;;;;;;;23.35;12.90;;;;;;;19.12;45.46;100721.02;2920622;80;21085;-87
2022/04/30 16:31:39;;;;;;;10.78;6.85;;;;;;;19.17;45.46;100713.78;2888409;81;21027;-92
2022/04/30 16:35:40;;;;;;;11.97;9.03;;;;;;;19.14;45.39;100717.64;2819354;82;21072;-85
2022/04/30 16:39:42;;;;;;;17.27;8.63;;;;;;;19.15;47.05;100717.98;2922176;80;21020;-87
2022/04/30 16:43:43;;;;;;;25.95;10.75;;;;;;;19.13;47.58;100712.75;2930424;80;21076;-85
2022/04/30 16:47:44;;;;;;;11.93;7.22;;;;;;;19.13;48.51;100719.48;2830840;82;21087;-86
2022/04/30 17:00:25;;;;;;;91.87;38.85;;;;;;;19.00;49.44;100711.59;2921085;80;21064;-85
2022/04/30 17:04:27;;;;;;;41.08;18.42;;;;;;;18.87;49.05;100715.64;2869091;82;21055;-85
2022/04/30 17:08:28;;;;;;;20.62;11.60;;;;;;;18.77;49.12;100709.58;2888122;82;21114;-87
2022/04/30 17:12:30;;;;;;;15.23;8.28;;;;;;;18.64;48.51;100712.27;2844467;81;21048;-87
2022/04/30 17:16:33;;;;;;;8.95;6.05;;;;;;;18.55;49.92;100720.02;2903788;80;21354;-90
2022/04/30 17:20:34;;;;;;;11.28;6.60;;;;;;;18.45;53.25;100717.49;2922144;80;21513;-87
2022/04/30 17:24:35;;;;;;;13.00;6.15;;;;;;;18.35;54.97;100723.03;2897832;80;21505;-88
2022/04/30 17:28:36;;;;;;;14.55;6.47;;;;;;;18.34;56.92;100725.88;2932553;79;21077;-86
2022/04/30 17:41:17;;;;;;;8.18;5.75;;;;;;;18.18;55.46;100722.18;2918285;79;21034;-84
2022/04/30 17:45:18;;;;;;;30.95;6.67;;;;;;;18.09;54.74;100715.94;2931105;79;21045;-83
2022/04/30 17:49:20;;;;;;;21.50;7.20;;;;;;;17.90;56.03;100717.53;2890515;81;21078;-84
2022/04/30 17:53:23;;;;;;;16.77;7.33;;;;;;;17.81;57.20;100721.52;2884835;80;20987;-85
2022/04/30 17:57:25;;;;;;;11.15;4.87;;;;;;;17.75;58.43;100722.19;2919156;80;21066;-87
2022/04/30 18:01:27;;;;;;;10.80;5.53;;;;;;;17.58;60.76;100725.81;2912659;80;21042;-86
2022/04/30 18:05:29;;;;;;;17.23;9.63;;;;;;;17.41;61.13;100727.06;2913389;80;21031;-86
2022/04/30 18:09:30;;;;;;;8.65;6.35;;;;;;;17.20;60.83;100726.13;2914999;80;21068;-85
2022/04/30 18:13:34;;;;;;;6.12;4.87;;;;;;;17.02;61.10;100737.77;2913017;80;21004;-81
2022/04/30 18:17:34;;;;;;;13.10;7.95;;;;;;;16.89;61.65;100734.09;2862475;81;21090;-85
2022/04/30 18:21:36;;;;;;;8.10;6.20;;;;;;;16.71;63.96;100739.50;2935416;80;21030;-85
2022/04/30 18:25:37;;;;;;;10.40;7.30;;;;;;;16.52;62.95;100739.19;2894728;82;21832;-82
2022/04/30 18:29:38;;;;;;;10.35;5.80;;;;;;;16.34;62.79;100744.05;2894001;82;21049;-81
2022/04/30 18:33:40;;;;;;;8.40;5.45;;;;;;;16.17;62.41;100745.70;2928890;79;20996;-81
2022/04/30 18:37:41;;;;;;;8.93;6.42;;;;;;;15.95;62.62;100748.32;2928317;81;21023;-81
2022/04/30 18:41:42;;;;;;;8.68;5.87;;;;;;;15.68;63.02;100754.84;2866983;81;21018;-81
2022/04/30 18:45:45;;;;;;;7.12;6.15;;;;;;;15.47;63.25;100746.17;2937302;81;21027;-82
2022/04/30 18:49:46;;;;;;;7.75;6.28;;;;;;;15.29;63.57;100745.59;2897219;82;21044;-81
2022/04/30 19:02:26;;;;;;;8.00;6.35;;;;;;;14.64;64.27;100761.79;2932475;80;21062;-79
2022/04/30 19:06:28;;;;;;;10.23;7.72;;;;;;;14.48;65.80;100762.84;2858601;82;21072;-80
2022/04/30 19:10:29;;;;;;;11.70;9.05;;;;;;;14.32;68.54;100764.22;2870658;81;21071;-82
2022/04/30 19:14:30;;;;;;;22.62;11.65;;;;;;;13.98;68.68;100764.59;2861546;82;21011;-85
2022/04/30 19:18:31;;;;;;;12.58;9.45;;;;;;;13.78;68.83;100765.87;2953797;80;21084;-84
2022/04/30 19:22:33;;;;;;;9.58;6.97;;;;;;;13.68;68.72;100760.95;2923206;80;21025;-84
2022/04/30 19:26:35;;;;;;;14.10;8.28;;;;;;;13.65;68.69;100763.91;2906986;80;21055;-84
2022/04/30 19:30:39;;;;;;;9.93;7.78;;;;;;;13.61;69.13;100759.30;2888352;81;21048;-84
2022/04/30 19:34:41;;;;;;;21.15;11.18;;;;;;;13.59;69.43;100761.77;2881983;81;20973;-83
2022/04/30 19:38:45;;;;;;;14.60;10.98;;;;;;;13.59;69.91;100765.28;2934457;80;21048;-84
2022/04/30 19:42:50;;;;;;;17.67;10.72;;;;;;;13.55;70.61;100759.34;2910141;81;21040;-84
2022/04/30 19:46:51;;;;;;;18.37;11.18;;;;;;;13.50;70.44;100760.24;2876848;82;21019;-83
2022/04/30 19:50:52;;;;;;;25.00;15.32;;;;;;;13.42;69.87;100762.21;2898472;80;21012;-89
2022/04/30 19:54:53;;;;;;;20.80;14.23;;;;;;;13.28;69.76;100760.73;2860287;81;20999;-82
2022/04/30 19:58:55;;;;;;;28.17;13.85;;;;;;;13.18;67.87;100760.33;2911027;81;21011;-81
2022/04/30 20:02:59;;;;;;;30.62;19.12;;;;;;;13.08;68.08;100754.92;2915301;81;21043;-82
2022/04/30 20:07:01;;;;;;;28.67;17.70;;;;;;;12.96;68.05;100764.31;2912443;81;21052;-81
2022/04/30 20:19:43;;;;;;;37.65;21.85;;;;;;;12.42;69.25;100769.66;2889948;81;21087;-83
2022/04/30 20:23:50;;;;;;;47.78;23.47;;;;;;;12.31;69.21;100769.68;2905032;81;21051;-83
2022/04/30 20:27:54;;;;;;;51.58;25.45;;;;;;;12.16;69.27;100761.12;2903811;81;21018;-85
2022/04/30 20:40:32;;;;;;;57.58;33.18;;;;;;;11.79;70.02;100757.38;2898258;81;21048;-82
2022/04/30 20:44:33;;;;;;;42.78;24.05;;;;;;;11.68;70.30;100759.06;2901429;80;21604;-84
2022/04/30 20:48:34;;;;;;;32.98;19.23;;;;;;;11.58;70.49;100765.60;2857425;80;21158;-83
2022/04/30 20:52:36;;;;;;;23.92;16.55;;;;;;;11.49;70.26;100758.81;2884052;80;21350;-81
2022/04/30 20:56:40;;;;;;;30.35;17.60;;;;;;;11.36;70.21;100768.25;2811200;82;20966;-80
2022/04/30 21:00:42;;;;;;;36.80;20.40;;;;;;;11.19;70.53;100765.08;2898986;80;21026;-81
2022/04/30 21:04:44;;;;;;;23.27;15.00;;;;;;;11.09;71.02;100768.92;2904884;81;21542;-81
2022/04/30 21:08:46;;;;;;;20.88;14.65;;;;;;;11.03;71.21;100768.57;2883547;80;21059;-81
2022/04/30 21:12:47;;;;;;;28.52;14.28;;;;;;;10.97;70.82;100765.39;2852604;81;21631;-81